createdAt,value
2023-03-14T00:01:12.067Z,99.90
2023-03-14T00:03:38.956Z,99.90
2023-03-14T00:06:07.250Z,99.90
2023-03-14T00:08:35.954Z,99.90
2023-03-14T00:11:06.198Z,99.90
2023-03-14T00:13:32.884Z,99.90
2023-03-14T00:16:03.598Z,99.90
2023-03-14T00:18:30.433Z,99.90
2023-03-14T00:20:58.970Z,99.90
2023-03-14T00:23:25.721Z,99.90
2023-03-14T00:25:53.757Z,99.90
2023-03-14T00:28:20.484Z,99.90
2023-03-14T00:30:47.256Z,99.90
2023-03-14T00:33:13.985Z,99.90
2023-03-14T00:35:40.749Z,99.90
2023-03-14T00:38:07.536Z,99.90
2023-03-14T00:40:34.278Z,99.90
2023-03-14T00:43:02.341Z,99.90
2023-03-14T00:45:29.072Z,99.90
2023-03-14T00:47:55.825Z,99.90
2023-03-14T00:50:22.548Z,99.90
2023-03-14T00:52:49.322Z,99.90
2023-03-14T00:55:16.138Z,99.90
2023-03-14T00:57:42.903Z,99.90
2023-03-14T01:00:12.724Z,99.90
2023-03-14T01:02:39.533Z,99.90
2023-03-14T01:05:06.920Z,99.90
2023-03-14T01:07:33.796Z,99.90
2023-03-14T01:10:00.522Z,99.90
2023-03-14T01:12:28.710Z,99.90
2023-03-14T01:14:55.461Z,99.90
2023-03-14T01:17:24.796Z,99.90
2023-03-14T01:19:51.699Z,99.90
2023-03-14T01:22:18.484Z,99.90
2023-03-14T01:24:45.292Z,99.90
2023-03-14T01:27:12.017Z,99.90
2023-03-14T01:29:38.891Z,99.90
2023-03-14T01:32:05.805Z,99.90
2023-03-14T01:34:35.061Z,99.90
2023-03-14T01:37:01.796Z,99.90
2023-03-14T01:39:28.692Z,99.90
2023-03-14T01:41:55.465Z,99.90
2023-03-14T01:44:22.219Z,99.90
2023-03-14T01:46:48.961Z,99.90
2023-03-14T01:49:25.364Z,99.90
2023-03-14T01:51:57.774Z,99.90
2023-03-14T01:54:28.963Z,99.90
2023-03-14T01:57:02.058Z,99.90
2023-03-14T01:59:31.159Z,99.90
2023-03-14T02:01:58.521Z,99.90
2023-03-14T02:04:29.255Z,99.90
2023-03-14T02:07:02.399Z,99.90
2023-03-14T02:09:29.684Z,99.90
2023-03-14T02:11:56.689Z,99.90
2023-03-14T02:14:31.300Z,99.90
2023-03-14T02:16:58.193Z,99.90
2023-03-14T02:19:35.517Z,99.90
2023-03-14T02:22:08.807Z,99.90
2023-03-14T02:24:43.604Z,99.90
2023-03-14T02:27:13.690Z,99.90
2023-03-14T02:29:46.101Z,99.90
2023-03-14T02:32:13.521Z,99.90
2023-03-14T02:34:42.349Z,99.90
2023-03-14T02:37:10.386Z,99.90
2023-03-14T02:39:40.837Z,99.90
2023-03-14T02:42:07.694Z,99.90
2023-03-14T02:44:35.917Z,99.90
2023-03-14T02:47:04.097Z,99.90
2023-03-14T02:49:34.219Z,99.90
2023-03-14T02:52:00.961Z,99.90
2023-03-14T02:54:27.700Z,99.90
2023-03-14T02:56:54.462Z,99.90
2023-03-14T02:59:21.173Z,99.90
2023-03-14T03:01:49.178Z,99.90
2023-03-14T03:04:15.880Z,99.90
2023-03-14T03:06:42.564Z,99.90
2023-03-14T03:09:09.459Z,99.90
2023-03-14T03:11:36.140Z,99.90
2023-03-14T03:14:02.863Z,99.90
2023-03-14T03:16:29.645Z,99.90
2023-03-14T03:18:57.784Z,99.90
2023-03-14T03:21:24.557Z,99.90
2023-03-14T03:23:51.678Z,99.90
2023-03-14T03:26:18.404Z,99.90
2023-03-14T03:28:45.162Z,99.90
2023-03-14T03:31:12.579Z,99.90
2023-03-14T03:33:39.944Z,99.90
2023-03-14T03:36:09.988Z,99.90
2023-03-14T03:38:37.141Z,99.90
2023-03-14T03:41:05.362Z,99.90
2023-03-14T03:43:32.106Z,99.90
2023-03-14T03:45:58.904Z,99.90
2023-03-14T03:48:25.632Z,99.90
2023-03-14T03:50:52.389Z,99.90
2023-03-14T03:53:32.330Z,99.90
2023-03-14T03:56:00.194Z,99.90
2023-03-14T03:58:26.936Z,99.90
2023-03-14T04:00:53.628Z,99.90
2023-03-14T04:03:20.416Z,99.90
2023-03-14T04:05:47.333Z,99.90
2023-03-14T04:08:14.187Z,99.90
2023-03-14T04:10:42.284Z,99.90
2023-03-14T04:13:09.013Z,99.90
2023-03-14T04:15:35.793Z,99.90
2023-03-14T04:18:02.595Z,99.90
2023-03-14T04:20:29.316Z,99.90
2023-03-14T04:22:56.030Z,99.90
2023-03-14T04:25:22.817Z,99.90
2023-03-14T04:27:53.267Z,99.90
2023-03-14T04:30:20.201Z,99.90
2023-03-14T04:32:47.019Z,99.90
2023-03-14T04:35:13.786Z,99.90
2023-03-14T04:37:40.480Z,99.90
2023-03-14T04:40:08.880Z,99.90
2023-03-14T04:42:35.573Z,99.90
2023-03-14T04:45:04.215Z,99.90
2023-03-14T04:47:30.906Z,99.90
2023-03-14T04:49:57.577Z,99.90
2023-03-14T04:52:24.281Z,99.90
2023-03-14T04:54:50.962Z,99.90
2023-03-14T04:57:17.799Z,99.90
2023-03-14T04:59:44.512Z,99.90
2023-03-14T05:02:12.658Z,99.90
2023-03-14T05:04:39.518Z,99.90
2023-03-14T05:07:06.252Z,99.90
2023-03-14T05:09:32.953Z,99.90
2023-03-14T05:11:59.651Z,99.90
2023-03-14T05:14:26.458Z,99.90
2023-03-14T05:16:53.168Z,99.90
2023-03-14T05:19:21.234Z,99.90
2023-03-14T05:21:48.001Z,99.90
2023-03-14T05:24:14.707Z,99.90
2023-03-14T05:26:41.410Z,99.90
2023-03-14T05:29:08.133Z,99.90
2023-03-14T05:31:35.003Z,99.90
2023-03-14T05:34:01.735Z,99.90
2023-03-14T05:36:29.811Z,99.90
2023-03-14T05:38:56.521Z,99.90
2023-03-14T05:41:23.245Z,99.90
2023-03-14T05:43:49.959Z,99.90
2023-03-14T05:46:16.895Z,99.90
2023-03-14T05:48:43.605Z,99.90
2023-03-14T05:51:10.339Z,99.90
2023-03-14T05:53:38.461Z,99.90
2023-03-14T05:56:05.871Z,99.90
2023-03-14T05:58:32.557Z,99.90
2023-03-14T06:01:02.129Z,99.90
2023-03-14T06:03:28.876Z,99.90
2023-03-14T06:05:55.608Z,99.90
2023-03-14T06:08:22.288Z,99.90
2023-03-14T06:10:50.293Z,99.90
2023-03-14T06:13:17.101Z,99.90
2023-03-14T06:15:44.147Z,99.90
2023-03-14T06:18:10.927Z,99.90
2023-03-14T06:20:38.344Z,99.90
2023-03-14T06:23:05.181Z,99.90
2023-03-14T06:25:32.287Z,99.90
2023-03-14T06:28:00.466Z,99.90
2023-03-14T06:30:27.243Z,99.90
2023-03-14T06:32:54.394Z,99.90
2023-03-14T06:35:21.232Z,99.90
2023-03-14T06:37:48.119Z,99.90
2023-03-14T06:40:15.166Z,99.90
2023-03-14T06:42:41.854Z,99.90
2023-03-14T06:45:11.016Z,99.90
2023-03-14T06:47:38.085Z,99.90
2023-03-14T06:50:05.962Z,99.90
2023-03-14T06:52:32.843Z,99.90
2023-03-14T06:55:00.376Z,99.90
2023-03-14T06:57:27.066Z,99.90
2023-03-14T06:59:54.072Z,99.90
2023-03-14T07:02:36.064Z,99.90
2023-03-14T07:05:09.054Z,99.90
2023-03-14T07:07:35.766Z,99.80
2023-03-14T07:10:02.486Z,99.90
2023-03-14T07:12:29.210Z,99.70
2023-03-14T07:14:57.648Z,99.60
2023-03-14T07:17:27.333Z,99.70
2023-03-14T07:19:54.176Z,99.70
2023-03-14T07:22:20.896Z,99.60
2023-03-14T07:24:47.808Z,99.60
2023-03-14T07:27:14.562Z,99.70
2023-03-14T07:29:41.696Z,99.70
2023-03-14T07:32:08.426Z,99.70
2023-03-14T07:34:36.706Z,99.60
2023-03-14T07:37:03.408Z,99.70
2023-03-14T07:39:30.267Z,99.70
2023-03-14T07:41:57.965Z,99.70
2023-03-14T07:44:25.725Z,99.70
2023-03-14T07:46:52.632Z,99.80
2023-03-14T07:49:19.508Z,99.80
2023-03-14T07:51:50.259Z,99.90
2023-03-14T07:54:16.984Z,99.90
2023-03-14T07:56:43.734Z,99.90
2023-03-14T07:59:10.442Z,99.90
2023-03-14T08:01:37.224Z,99.90
2023-03-14T08:04:04.009Z,99.80
2023-03-14T08:06:30.763Z,99.80
2023-03-14T08:08:58.823Z,99.90
2023-03-14T08:11:25.590Z,99.90
2023-03-14T08:13:52.291Z,99.90
2023-03-14T08:16:19.686Z,99.90
2023-03-14T08:18:47.269Z,99.90
2023-03-14T08:21:14.376Z,99.90
2023-03-14T08:23:41.502Z,99.90
2023-03-14T08:26:09.713Z,99.90
2023-03-14T08:28:36.389Z,99.90
2023-03-14T08:31:03.433Z,99.90
2023-03-14T08:33:30.415Z,99.90
2023-03-14T08:35:59.244Z,99.90
2023-03-14T08:38:26.031Z,99.90
2023-03-14T08:40:56.926Z,99.90
2023-03-14T08:43:25.063Z,99.90
2023-03-14T08:45:51.832Z,99.90
2023-03-14T08:48:18.512Z,99.90
2023-03-14T08:50:45.219Z,99.90
2023-03-14T08:53:12.046Z,99.90
2023-03-14T08:55:38.781Z,99.90
2023-03-14T08:58:05.506Z,99.90
2023-03-14T09:00:33.625Z,99.90
2023-03-14T09:03:00.353Z,99.80
2023-03-14T09:05:27.134Z,99.80
2023-03-14T09:07:53.926Z,99.80
2023-03-14T09:10:20.849Z,99.70
2023-03-14T09:12:47.590Z,99.70
2023-03-14T09:15:14.301Z,99.70
2023-03-14T09:17:43.591Z,99.70
2023-03-14T09:20:11.589Z,99.60
2023-03-14T09:22:38.579Z,99.50
2023-03-14T09:25:06.025Z,99.50
2023-03-14T09:27:32.881Z,99.60
2023-03-14T09:29:59.589Z,99.60
2023-03-14T09:32:26.375Z,99.60
2023-03-14T09:34:54.473Z,99.70
2023-03-14T09:37:21.351Z,99.60
2023-03-14T09:39:48.075Z,99.60
2023-03-14T09:42:18.083Z,99.60
2023-03-14T09:44:53.834Z,99.70
2023-03-14T09:47:21.318Z,99.70
2023-03-14T09:49:48.041Z,99.60
2023-03-14T09:52:20.807Z,99.60
2023-03-14T09:54:51.041Z,99.60
2023-03-14T09:57:19.811Z,99.60
2023-03-14T09:59:48.495Z,99.70
2023-03-14T10:02:18.938Z,99.70
2023-03-14T10:04:46.819Z,99.60
2023-03-14T10:07:18.084Z,99.70
2023-03-14T10:09:45.323Z,99.80
2023-03-14T10:12:12.972Z,99.80
2023-03-14T10:14:47.184Z,99.80
2023-03-14T10:17:14.600Z,99.90
2023-03-14T10:19:52.634Z,99.90
2023-03-14T10:22:22.121Z,99.90
2023-03-14T10:24:53.709Z,99.90
2023-03-14T10:27:22.769Z,99.90
2023-03-14T10:29:56.243Z,99.90
2023-03-14T10:32:32.423Z,99.90
2023-03-14T10:35:09.581Z,99.90
2023-03-14T10:37:50.719Z,99.90
2023-03-14T10:40:19.916Z,99.90
2023-03-14T10:42:46.899Z,99.90
2023-03-14T10:45:32.924Z,99.80
2023-03-14T10:48:06.897Z,99.70
2023-03-14T10:50:33.945Z,99.70
2023-03-14T10:53:04.675Z,99.60
2023-03-14T10:55:41.353Z,99.60
2023-03-14T10:58:22.021Z,99.30
2023-03-14T11:00:54.762Z,99.30
2023-03-14T11:03:22.333Z,99.30
2023-03-14T11:05:54.926Z,99.30
2023-03-14T11:08:28.642Z,99.40
2023-03-14T11:11:03.552Z,99.50
2023-03-14T11:13:39.266Z,99.50
2023-03-14T11:16:15.799Z,99.50
2023-03-14T11:19:04.700Z,99.40
2023-03-14T11:21:37.464Z,99.40
2023-03-14T11:24:22.472Z,99.30
2023-03-14T11:26:56.456Z,99.20
2023-03-14T11:29:29.247Z,99.20
2023-03-14T11:31:59.136Z,99.30
2023-03-14T11:34:29.824Z,99.30
2023-03-14T11:37:01.912Z,99.30
2023-03-14T11:39:38.649Z,99.20
2023-03-14T11:42:05.846Z,99.30
2023-03-14T11:44:37.695Z,99.20
2023-03-14T11:47:11.278Z,99.20
2023-03-14T11:49:41.058Z,99.10
2023-03-14T11:52:14.163Z,99.00
2023-03-14T11:54:46.439Z,99.00
2023-03-14T11:57:16.352Z,99.10
2023-03-14T11:59:50.851Z,99.10
2023-03-14T12:02:25.621Z,99.20
2023-03-14T12:05:18.875Z,99.20
2023-03-14T12:08:13.841Z,98.70
2023-03-14T12:10:46.496Z,98.60
2023-03-14T12:13:15.360Z,98.70
2023-03-14T12:15:47.669Z,98.70
2023-03-14T12:18:26.750Z,98.80
2023-03-14T12:20:56.484Z,98.70
2023-03-14T12:23:24.511Z,98.50
2023-03-14T12:26:08.966Z,98.30
2023-03-14T12:28:35.554Z,98.10
2023-03-14T12:31:35.585Z,98.20
2023-03-14T12:34:04.076Z,98.20
2023-03-14T12:36:55.068Z,98.30
2023-03-14T12:39:29.080Z,97.90
2023-03-14T12:42:03.483Z,97.60
2023-03-14T12:44:45.597Z,97.50
2023-03-14T12:47:51.163Z,97.40
2023-03-14T12:50:37.590Z,97.10
2023-03-14T12:53:30.263Z,97.10
2023-03-14T12:56:02.923Z,97.30
2023-03-14T12:58:36.347Z,97.20
2023-03-14T13:01:05.476Z,97.30
2023-03-14T13:03:43.895Z,97.10
2023-03-14T13:06:11.831Z,96.80
2023-03-14T13:08:41.533Z,96.50
2023-03-14T13:11:11.569Z,96.20
2023-03-14T13:13:46.645Z,96.20
2023-03-14T13:16:17.448Z,95.90
2023-03-14T13:18:46.471Z,96.20
2023-03-14T13:21:17.218Z,96.50
2023-03-14T13:23:58.855Z,96.70
2023-03-14T13:26:33.470Z,96.90
2023-03-14T13:29:09.231Z,96.90
2023-03-14T13:31:36.219Z,96.90
2023-03-14T13:34:07.391Z,96.60
2023-03-14T13:36:36.811Z,96.80
2023-03-14T13:39:05.322Z,96.80
2023-03-14T13:41:32.120Z,96.90
2023-03-14T13:44:06.253Z,96.90
2023-03-14T13:46:34.406Z,97.20
2023-03-14T13:49:05.342Z,97.40
2023-03-14T13:51:33.253Z,97.60
2023-03-14T13:54:00.563Z,97.80
2023-03-14T13:56:29.916Z,98.00
2023-03-14T13:58:56.698Z,98.10
2023-03-14T14:01:28.492Z,98.20
2023-03-14T14:03:57.429Z,98.40
2023-03-14T14:06:32.349Z,98.60
2023-03-14T14:09:02.305Z,98.80
2023-03-14T14:11:48.882Z,98.90
2023-03-14T14:14:26.277Z,99.00
2023-03-14T14:16:55.580Z,99.30
2023-03-14T14:19:24.118Z,99.30
2023-03-14T14:21:51.754Z,99.40
2023-03-14T14:24:18.725Z,99.20
2023-03-14T14:26:48.627Z,99.00
2023-03-14T14:29:26.518Z,99.10
2023-03-14T14:32:03.260Z,99.30
2023-03-14T14:34:30.298Z,99.20
2023-03-14T14:36:57.756Z,99.10
2023-03-14T14:39:26.524Z,99.20
2023-03-14T14:41:54.170Z,99.30
2023-03-14T14:44:30.588Z,99.30
2023-03-14T14:46:57.722Z,99.00
2023-03-14T14:49:31.109Z,99.00
2023-03-14T14:52:02.900Z,98.80
2023-03-14T14:54:35.660Z,98.80
2023-03-14T14:57:04.564Z,99.00
2023-03-14T14:59:31.351Z,99.40
2023-03-14T15:01:59.517Z,99.60
2023-03-14T15:04:30.701Z,99.90
2023-03-14T15:06:57.440Z,99.90
2023-03-14T15:09:24.590Z,99.90
2023-03-14T15:11:51.536Z,99.90
2023-03-14T15:14:18.279Z,99.90
2023-03-14T15:16:45.058Z,99.90
2023-03-14T15:19:24.299Z,99.90
2023-03-14T15:21:53.898Z,99.90
2023-03-14T15:24:21.104Z,99.90
2023-03-14T15:26:47.870Z,99.90
2023-03-14T15:29:14.619Z,99.90
2023-03-14T15:31:42.746Z,99.90
2023-03-14T15:34:09.723Z,99.90
2023-03-14T15:36:37.592Z,99.90
2023-03-14T15:39:07.410Z,99.60
2023-03-14T15:41:34.505Z,99.20
2023-03-14T15:44:02.109Z,98.50
2023-03-14T15:46:31.051Z,98.00
2023-03-14T15:48:58.137Z,97.80
2023-03-14T15:51:24.841Z,96.90
2023-03-14T15:53:51.677Z,96.20
2023-03-14T15:56:22.370Z,95.70
2023-03-14T15:58:49.085Z,95.40
2023-03-14T16:01:16.994Z,94.90
2023-03-14T16:03:44.002Z,94.80
2023-03-14T16:06:10.772Z,94.40
2023-03-14T16:08:37.533Z,93.20
2023-03-14T16:11:04.412Z,92.90
2023-03-14T16:13:32.624Z,92.50
2023-03-14T16:16:00.759Z,91.40
2023-03-14T16:18:29.943Z,90.80
2023-03-14T16:20:58.700Z,89.80
2023-03-14T16:23:26.119Z,88.10
2023-03-14T16:25:53.820Z,87.40
2023-03-14T16:28:21.375Z,86.90
2023-03-14T16:30:49.505Z,86.90
2023-03-14T16:33:17.089Z,86.20
2023-03-14T16:35:55.271Z,85.90
2023-03-14T16:38:22.863Z,85.40
2023-03-14T16:41:00.526Z,85.30
2023-03-14T16:43:28.046Z,85.40
2023-03-14T16:45:58.329Z,85.40
2023-03-14T16:48:25.074Z,84.80
2023-03-14T16:50:51.738Z,84.30
2023-03-14T16:53:19.305Z,83.10
2023-03-14T16:55:46.399Z,83.20
2023-03-14T16:58:13.585Z,82.30
2023-03-14T17:00:40.270Z,82.40
2023-03-14T17:03:08.334Z,82.40
2023-03-14T17:05:35.167Z,82.70
2023-03-14T17:08:01.954Z,83.40
2023-03-14T17:10:28.694Z,81.90
2023-03-14T17:12:55.487Z,82.00
2023-03-14T17:15:22.343Z,82.00
2023-03-14T17:17:49.084Z,81.50
2023-03-14T17:20:17.332Z,81.30
2023-03-14T17:22:44.122Z,80.40
2023-03-14T17:25:10.866Z,80.20
2023-03-14T17:27:38.059Z,80.30
2023-03-14T17:30:05.776Z,80.10
2023-03-14T17:32:32.497Z,79.80
2023-03-14T17:34:59.465Z,79.90
2023-03-14T17:37:27.587Z,80.40
2023-03-14T17:39:54.431Z,79.50
2023-03-14T17:42:21.171Z,79.50
2023-03-14T17:44:47.891Z,79.30
2023-03-14T17:47:14.618Z,79.20
2023-03-14T17:49:41.307Z,79.20
2023-03-14T17:52:08.092Z,79.30
2023-03-14T17:54:36.140Z,78.90
2023-03-14T17:57:02.826Z,78.90
2023-03-14T17:59:29.495Z,78.50
2023-03-14T18:01:56.455Z,79.00
2023-03-14T18:04:23.282Z,78.20
2023-03-14T18:06:50.095Z,78.60
2023-03-14T18:09:16.782Z,78.30
2023-03-14T18:11:44.879Z,78.50
2023-03-14T18:14:11.554Z,78.60
2023-03-14T18:16:38.389Z,78.70
2023-03-14T18:19:05.074Z,78.50
2023-03-14T18:21:31.777Z,78.40
2023-03-14T18:23:58.458Z,78.60
2023-03-14T18:26:25.194Z,78.50
2023-03-14T18:28:54.644Z,78.60
2023-03-14T18:31:21.477Z,78.40
2023-03-14T18:33:48.669Z,78.70
2023-03-14T18:36:16.033Z,78.80
2023-03-14T18:38:42.818Z,78.80
2023-03-14T18:41:10.906Z,78.90
2023-03-14T18:43:37.580Z,79.10
2023-03-14T18:46:05.808Z,78.30
2023-03-14T18:48:32.829Z,78.60
2023-03-14T18:51:00.534Z,79.60
2023-03-14T18:53:27.500Z,79.90
2023-03-14T18:55:54.912Z,80.00
2023-03-14T18:58:22.200Z,80.00
2023-03-14T19:00:49.926Z,80.10
2023-03-14T19:03:18.278Z,80.90
2023-03-14T19:05:45.235Z,80.40
2023-03-14T19:08:12.171Z,80.00
2023-03-14T19:10:38.875Z,80.20
2023-03-14T19:13:05.580Z,80.20
2023-03-14T19:15:32.293Z,80.20
2023-03-14T19:17:59.021Z,80.50
2023-03-14T19:20:27.086Z,80.40
2023-03-14T19:22:53.800Z,80.20
2023-03-14T19:25:20.570Z,80.30
2023-03-14T19:27:47.245Z,80.60
2023-03-14T19:30:14.157Z,80.60
2023-03-14T19:32:40.898Z,80.90
2023-03-14T19:35:08.403Z,81.20
2023-03-14T19:37:36.478Z,81.30
2023-03-14T19:40:03.543Z,81.20
2023-03-14T19:42:30.261Z,82.20
2023-03-14T19:44:56.940Z,81.40
2023-03-14T19:47:23.678Z,81.40
2023-03-14T19:49:50.385Z,80.90
2023-03-14T19:52:17.124Z,80.60
2023-03-14T19:54:45.270Z,80.80
2023-03-14T19:57:11.990Z,80.50
2023-03-14T19:59:38.672Z,80.50
2023-03-14T20:02:05.428Z,80.40
2023-03-14T20:04:32.182Z,80.30
2023-03-14T20:06:58.896Z,80.50
2023-03-14T20:09:25.644Z,80.50
2023-03-14T20:11:53.758Z,80.60
2023-03-14T20:14:20.534Z,80.90
2023-03-14T20:16:47.278Z,80.80
2023-03-14T20:19:14.443Z,81.00
2023-03-14T20:21:41.489Z,81.30
2023-03-14T20:24:08.606Z,81.40
2023-03-14T20:26:35.337Z,81.40
2023-03-14T20:29:03.982Z,81.50
2023-03-14T20:31:30.919Z,81.70
2023-03-14T20:33:58.601Z,81.80
2023-03-14T20:36:25.398Z,82.00
2023-03-14T20:38:52.275Z,82.10
2023-03-14T20:41:19.000Z,82.50
2023-03-14T20:43:45.739Z,82.90
2023-03-14T20:46:14.001Z,83.00
2023-03-14T20:48:40.922Z,83.30
2023-03-14T20:51:07.624Z,83.60
2023-03-14T20:53:34.374Z,84.00
2023-03-14T20:56:01.070Z,85.20
2023-03-14T20:58:27.968Z,84.40
2023-03-14T21:00:56.116Z,84.00
2023-03-14T21:03:24.649Z,83.90
2023-03-14T21:05:52.676Z,84.00
2023-03-14T21:08:21.574Z,84.00
2023-03-14T21:10:49.010Z,84.00
2023-03-14T21:13:15.782Z,83.90
2023-03-14T21:15:42.643Z,83.80
2023-03-14T21:18:09.572Z,83.70
2023-03-14T21:20:39.801Z,83.60
2023-03-14T21:23:07.047Z,83.60
2023-03-14T21:25:34.766Z,83.70
2023-03-14T21:28:02.052Z,83.90
2023-03-14T21:30:28.989Z,84.00
2023-03-14T21:32:55.744Z,83.60
2023-03-14T21:35:22.613Z,83.80
2023-03-14T21:37:50.669Z,84.30
2023-03-14T21:40:17.887Z,84.40
2023-03-14T21:42:44.602Z,84.50
2023-03-14T21:45:11.904Z,84.60
2023-03-14T21:47:38.803Z,84.70
2023-03-14T21:50:06.261Z,84.80
2023-03-14T21:52:32.963Z,84.90
2023-03-14T21:55:01.178Z,84.80
2023-03-14T21:57:27.942Z,84.60
2023-03-14T21:59:54.621Z,84.90
2023-03-14T22:02:21.443Z,84.90
2023-03-14T22:04:48.306Z,85.00
2023-03-14T22:07:18.478Z,85.00
2023-03-14T22:09:46.610Z,85.00
2023-03-14T22:12:14.726Z,85.30
2023-03-14T22:14:41.407Z,85.30
2023-03-14T22:17:08.186Z,85.20
2023-03-14T22:19:34.926Z,85.40
2023-03-14T22:22:01.641Z,85.50
2023-03-14T22:24:28.399Z,85.50
2023-03-14T22:26:55.265Z,85.40
2023-03-14T22:29:23.720Z,85.50
2023-03-14T22:31:50.801Z,85.70
2023-03-14T22:34:17.522Z,85.70
2023-03-14T22:36:44.212Z,85.60
2023-03-14T22:39:10.926Z,85.50
2023-03-14T22:41:37.660Z,85.80
2023-03-14T22:44:04.756Z,85.80
2023-03-14T22:46:32.780Z,86.00
2023-03-14T22:48:59.994Z,86.30
2023-03-14T22:51:26.672Z,86.30
2023-03-14T22:53:53.536Z,86.20
2023-03-14T22:56:20.397Z,86.20
2023-03-14T22:58:47.087Z,86.30
2023-03-14T23:01:14.211Z,86.50
2023-03-14T23:03:42.397Z,86.80
2023-03-14T23:06:09.628Z,86.80
2023-03-14T23:08:36.407Z,86.60
2023-03-14T23:11:05.351Z,86.50
2023-03-14T23:13:32.252Z,86.60
2023-03-14T23:15:59.442Z,86.60
2023-03-14T23:18:26.159Z,86.30
2023-03-14T23:21:04.107Z,86.40
2023-03-14T23:23:30.858Z,86.50
2023-03-14T23:25:57.552Z,86.40
2023-03-14T23:28:24.315Z,86.40
2023-03-14T23:30:54.214Z,86.40
2023-03-14T23:33:21.236Z,86.20
2023-03-14T23:35:48.114Z,86.00
2023-03-14T23:38:16.214Z,86.20
2023-03-14T23:40:43.871Z,86.20
2023-03-14T23:43:10.635Z,86.50
2023-03-14T23:45:37.342Z,86.60
2023-03-14T23:48:04.486Z,86.50
2023-03-14T23:50:31.369Z,86.30
2023-03-14T23:52:58.227Z,86.20
2023-03-14T23:55:26.410Z,86.20
2023-03-14T23:57:53.195Z,86.30
